sensor_id;sensor_type;location;lat;lon;timestamp;temperature;humidity
6443;DHT22;3254;47.372;8.512;2023-06-26T00:02:23;19.70;1.00
6443;DHT22;3254;47.372;8.512;2023-06-26T00:04:49;19.60;1.00
6443;DHT22;3254;47.372;8.512;2023-06-26T00:07:18;19.60;1.00
6443;DHT22;3254;47.372;8.512;2023-06-26T00:09:44;19.50;1.00
6443;DHT22;3254;47.372;8.512;2023-06-26T00:12:09;19.60;1.00
6443;DHT22;3254;47.372;8.512;2023-06-26T00:14:35;19.50;1.00
6443;DHT22;3254;47.372;8.512;2023-06-26T00:17:02;19.50;1.00
6443;DHT22;3254;47.372;8.512;2023-06-26T00:19:27;19.40;1.00
6443;DHT22;3254;47.372;8.512;2023-06-26T00:21:53;19.50;1.00
6443;DHT22;3254;47.372;8.512;2023-06-26T00:24:18;19.50;1.00
6443;DHT22;3254;47.372;8.512;2023-06-26T00:26:48;19.50;1.00
6443;DHT22;3254;47.372;8.512;2023-06-26T00:29:14;19.40;1.00
6443;DHT22;3254;47.372;8.512;2023-06-26T00:31:40;19.30;1.00
6443;DHT22;3254;47.372;8.512;2023-06-26T00:34:06;19.30;1.00
6443;DHT22;3254;47.372;8.512;2023-06-26T00:36:31;19.20;1.00
6443;DHT22;3254;47.372;8.512;2023-06-26T00:38:58;19.20;1.00
6443;DHT22;3254;47.372;8.512;2023-06-26T00:41:25;19.20;1.00
6443;DHT22;3254;47.372;8.512;2023-06-26T00:43:50;19.20;1.00
6443;DHT22;3254;47.372;8.512;2023-06-26T00:46:17;19.10;1.00
6443;DHT22;3254;47.372;8.512;2023-06-26T00:48:43;19.10;1.00
6443;DHT22;3254;47.372;8.512;2023-06-26T00:51:10;19.10;1.00
6443;DHT22;3254;47.372;8.512;2023-06-26T00:53:37;19.10;1.00
6443;DHT22;3254;47.372;8.512;2023-06-26T00:56:05;19.00;1.00
6443;DHT22;3254;47.372;8.512;2023-06-26T00:58:30;19.00;1.00
6443;DHT22;3254;47.372;8.512;2023-06-26T01:00:56;18.90;1.00
6443;DHT22;3254;47.372;8.512;2023-06-26T01:03:25;18.80;1.00
6443;DHT22;3254;47.372;8.512;2023-06-26T01:05:52;18.80;1.00
6443;DHT22;3254;47.372;8.512;2023-06-26T01:08:18;18.80;1.00
6443;DHT22;3254;47.372;8.512;2023-06-26T01:10:45;18.80;1.00
6443;DHT22;3254;47.372;8.512;2023-06-26T01:13:15;18.90;1.00
6443;DHT22;3254;47.372;8.512;2023-06-26T01:15:41;18.90;1.00
6443;DHT22;3254;47.372;8.512;2023-06-26T01:18:08;18.80;1.00
6443;DHT22;3254;47.372;8.512;2023-06-26T01:20:38;18.80;1.00
6443;DHT22;3254;47.372;8.512;2023-06-26T01:26:23;18.60;1.00
6443;DHT22;3254;47.372;8.512;2023-06-26T01:28:52;18.40;1.00
6443;DHT22;3254;47.372;8.512;2023-06-26T01:31:19;18.50;1.00
6443;DHT22;3254;47.372;8.512;2023-06-26T01:33:45;18.40;1.00
6443;DHT22;3254;47.372;8.512;2023-06-26T01:36:12;18.30;1.00
6443;DHT22;3254;47.372;8.512;2023-06-26T01:38:37;18.30;1.00
6443;DHT22;3254;47.372;8.512;2023-06-26T01:41:04;18.30;1.00
6443;DHT22;3254;47.372;8.512;2023-06-26T01:46:39;18.10;1.00
6443;DHT22;3254;47.372;8.512;2023-06-26T01:52:07;18.00;1.00
6443;DHT22;3254;47.372;8.512;2023-06-26T01:54:39;18.00;1.00
6443;DHT22;3254;47.372;8.512;2023-06-26T01:57:08;18.00;1.00
6443;DHT22;3254;47.372;8.512;2023-06-26T01:59:35;18.00;1.00
6443;DHT22;3254;47.372;8.512;2023-06-26T02:02:02;17.90;1.00
6443;DHT22;3254;47.372;8.512;2023-06-26T02:04:29;17.90;1.00
6443;DHT22;3254;47.372;8.512;2023-06-26T02:06:54;17.90;1.00
6443;DHT22;3254;47.372;8.512;2023-06-26T02:09:20;17.70;1.00
6443;DHT22;3254;47.372;8.512;2023-06-26T02:11:46;17.60;1.00
6443;DHT22;3254;47.372;8.512;2023-06-26T02:14:11;17.70;1.00
6443;DHT22;3254;47.372;8.512;2023-06-26T02:16:39;17.70;1.00
6443;DHT22;3254;47.372;8.512;2023-06-26T02:19:04;17.70;1.00
6443;DHT22;3254;47.372;8.512;2023-06-26T02:21:31;17.70;1.00
6443;DHT22;3254;47.372;8.512;2023-06-26T02:23:57;17.70;1.00
6443;DHT22;3254;47.372;8.512;2023-06-26T02:26:22;17.70;1.00
6443;DHT22;3254;47.372;8.512;2023-06-26T02:28:48;17.90;1.00
6443;DHT22;3254;47.372;8.512;2023-06-26T02:31:14;17.90;1.00
6443;DHT22;3254;47.372;8.512;2023-06-26T02:33:41;17.80;1.00
6443;DHT22;3254;47.372;8.512;2023-06-26T02:36:07;17.80;1.00
6443;DHT22;3254;47.372;8.512;2023-06-26T02:38:33;17.60;1.00
6443;DHT22;3254;47.372;8.512;2023-06-26T02:40:58;17.60;1.00
6443;DHT22;3254;47.372;8.512;2023-06-26T02:43:24;17.60;1.00
6443;DHT22;3254;47.372;8.512;2023-06-26T02:45:49;17.60;1.00
6443;DHT22;3254;47.372;8.512;2023-06-26T02:48:15;17.50;1.00
6443;DHT22;3254;47.372;8.512;2023-06-26T02:50:40;17.50;1.00
6443;DHT22;3254;47.372;8.512;2023-06-26T02:53:06;17.50;1.00
6443;DHT22;3254;47.372;8.512;2023-06-26T02:55:33;17.50;1.00
6443;DHT22;3254;47.372;8.512;2023-06-26T02:57:58;17.50;1.00
6443;DHT22;3254;47.372;8.512;2023-06-26T03:00:25;17.50;1.00
6443;DHT22;3254;47.372;8.512;2023-06-26T03:02:51;17.50;1.00
6443;DHT22;3254;47.372;8.512;2023-06-26T03:05:16;17.40;1.00
6443;DHT22;3254;47.372;8.512;2023-06-26T03:07:42;17.50;1.00
6443;DHT22;3254;47.372;8.512;2023-06-26T03:10:08;17.40;1.00
6443;DHT22;3254;47.372;8.512;2023-06-26T03:12:34;17.40;1.00
6443;DHT22;3254;47.372;8.512;2023-06-26T03:14:59;17.50;1.00
6443;DHT22;3254;47.372;8.512;2023-06-26T03:17:25;17.40;1.00
6443;DHT22;3254;47.372;8.512;2023-06-26T03:19:50;17.40;1.00
6443;DHT22;3254;47.372;8.512;2023-06-26T03:22:16;17.40;1.00
6443;DHT22;3254;47.372;8.512;2023-06-26T03:24:44;17.60;1.00
6443;DHT22;3254;47.372;8.512;2023-06-26T03:27:10;17.80;1.00
6443;DHT22;3254;47.372;8.512;2023-06-26T03:29:35;17.70;1.00
6443;DHT22;3254;47.372;8.512;2023-06-26T03:32:01;17.50;1.00
6443;DHT22;3254;47.372;8.512;2023-06-26T03:34:26;17.40;1.00
6443;DHT22;3254;47.372;8.512;2023-06-26T03:36:52;17.30;1.00
6443;DHT22;3254;47.372;8.512;2023-06-26T03:39:17;17.30;1.00
6443;DHT22;3254;47.372;8.512;2023-06-26T03:41:43;17.30;1.00
6443;DHT22;3254;47.372;8.512;2023-06-26T03:44:08;17.40;1.00
6443;DHT22;3254;47.372;8.512;2023-06-26T03:46:34;17.40;1.00
6443;DHT22;3254;47.372;8.512;2023-06-26T03:48:59;17.40;1.00
6443;DHT22;3254;47.372;8.512;2023-06-26T03:51:25;17.40;1.00
6443;DHT22;3254;47.372;8.512;2023-06-26T03:53:50;17.30;1.00
6443;DHT22;3254;47.372;8.512;2023-06-26T03:56:16;17.30;1.00
6443;DHT22;3254;47.372;8.512;2023-06-26T03:58:42;17.30;1.00
6443;DHT22;3254;47.372;8.512;2023-06-26T04:01:07;17.30;1.00
6443;DHT22;3254;47.372;8.512;2023-06-26T04:03:34;17.20;1.00
6443;DHT22;3254;47.372;8.512;2023-06-26T04:05:59;17.20;1.00
6443;DHT22;3254;47.372;8.512;2023-06-26T04:08:25;17.30;1.00
6443;DHT22;3254;47.372;8.512;2023-06-26T04:10:53;17.30;1.00
6443;DHT22;3254;47.372;8.512;2023-06-26T04:13:20;17.30;1.00
6443;DHT22;3254;47.372;8.512;2023-06-26T04:15:46;17.40;1.00
6443;DHT22;3254;47.372;8.512;2023-06-26T04:18:11;17.40;1.00
6443;DHT22;3254;47.372;8.512;2023-06-26T04:21:10;17.40;1.00
6443;DHT22;3254;47.372;8.512;2023-06-26T04:23:43;17.50;1.00
6443;DHT22;3254;47.372;8.512;2023-06-26T04:26:09;17.40;1.00
6443;DHT22;3254;47.372;8.512;2023-06-26T04:28:38;17.30;1.00
6443;DHT22;3254;47.372;8.512;2023-06-26T04:31:04;17.40;1.00
6443;DHT22;3254;47.372;8.512;2023-06-26T04:33:30;17.40;1.00
6443;DHT22;3254;47.372;8.512;2023-06-26T04:35:56;17.50;1.00
6443;DHT22;3254;47.372;8.512;2023-06-26T04:38:23;17.50;1.00
6443;DHT22;3254;47.372;8.512;2023-06-26T04:40:48;17.50;1.00
6443;DHT22;3254;47.372;8.512;2023-06-26T04:43:14;17.60;1.00
6443;DHT22;3254;47.372;8.512;2023-06-26T04:45:40;17.60;1.00
6443;DHT22;3254;47.372;8.512;2023-06-26T04:48:07;17.70;1.00
6443;DHT22;3254;47.372;8.512;2023-06-26T04:50:34;17.80;1.00
6443;DHT22;3254;47.372;8.512;2023-06-26T04:53:00;17.80;1.00
6443;DHT22;3254;47.372;8.512;2023-06-26T04:55:37;17.90;1.00
6443;DHT22;3254;47.372;8.512;2023-06-26T04:58:02;18.00;1.00
6443;DHT22;3254;47.372;8.512;2023-06-26T05:00:28;18.10;1.00
6443;DHT22;3254;47.372;8.512;2023-06-26T05:02:55;18.20;1.00
6443;DHT22;3254;47.372;8.512;2023-06-26T05:05:29;18.30;1.00
6443;DHT22;3254;47.372;8.512;2023-06-26T05:07:55;18.40;1.00
6443;DHT22;3254;47.372;8.512;2023-06-26T05:10:23;18.40;1.00
6443;DHT22;3254;47.372;8.512;2023-06-26T05:12:48;18.50;1.00
6443;DHT22;3254;47.372;8.512;2023-06-26T05:15:15;18.60;1.00
6443;DHT22;3254;47.372;8.512;2023-06-26T05:17:44;18.70;1.00
6443;DHT22;3254;47.372;8.512;2023-06-26T05:20:12;18.80;1.00
6443;DHT22;3254;47.372;8.512;2023-06-26T05:22:40;18.80;1.00
6443;DHT22;3254;47.372;8.512;2023-06-26T05:25:09;18.90;1.00
6443;DHT22;3254;47.372;8.512;2023-06-26T05:27:35;19.00;1.00
6443;DHT22;3254;47.372;8.512;2023-06-26T05:30:02;19.10;1.00
6443;DHT22;3254;47.372;8.512;2023-06-26T05:32:30;19.20;1.00
6443;DHT22;3254;47.372;8.512;2023-06-26T05:34:59;19.30;1.00
6443;DHT22;3254;47.372;8.512;2023-06-26T05:37:29;19.40;1.00
6443;DHT22;3254;47.372;8.512;2023-06-26T05:39:56;19.50;1.00
6443;DHT22;3254;47.372;8.512;2023-06-26T05:42:22;19.60;1.00
6443;DHT22;3254;47.372;8.512;2023-06-26T05:44:47;19.70;1.00
6443;DHT22;3254;47.372;8.512;2023-06-26T05:47:13;19.80;1.00
6443;DHT22;3254;47.372;8.512;2023-06-26T05:49:39;20.00;1.00
6443;DHT22;3254;47.372;8.512;2023-06-26T05:52:06;20.10;1.00
6443;DHT22;3254;47.372;8.512;2023-06-26T05:54:32;20.20;1.00
6443;DHT22;3254;47.372;8.512;2023-06-26T05:57:00;20.30;1.00
6443;DHT22;3254;47.372;8.512;2023-06-26T05:59:27;20.50;1.00
6443;DHT22;3254;47.372;8.512;2023-06-26T06:01:54;20.60;1.00
6443;DHT22;3254;47.372;8.512;2023-06-26T06:04:21;20.80;1.00
6443;DHT22;3254;47.372;8.512;2023-06-26T06:06:47;20.90;1.00
6443;DHT22;3254;47.372;8.512;2023-06-26T06:09:14;21.10;1.00
6443;DHT22;3254;47.372;8.512;2023-06-26T06:11:40;21.20;1.00
6443;DHT22;3254;47.372;8.512;2023-06-26T06:14:06;21.30;1.00
6443;DHT22;3254;47.372;8.512;2023-06-26T06:16:33;21.40;1.00
6443;DHT22;3254;47.372;8.512;2023-06-26T06:18:58;21.60;1.00
6443;DHT22;3254;47.372;8.512;2023-06-26T06:21:24;21.60;1.00
6443;DHT22;3254;47.372;8.512;2023-06-26T06:23:50;21.80;1.00
6443;DHT22;3254;47.372;8.512;2023-06-26T06:26:17;21.80;1.00
6443;DHT22;3254;47.372;8.512;2023-06-26T06:28:44;21.90;1.00
6443;DHT22;3254;47.372;8.512;2023-06-26T06:31:11;21.90;1.00
6443;DHT22;3254;47.372;8.512;2023-06-26T06:33:37;22.10;1.00
6443;DHT22;3254;47.372;8.512;2023-06-26T06:36:04;22.20;1.00
6443;DHT22;3254;47.372;8.512;2023-06-26T06:38:30;22.30;1.00
6443;DHT22;3254;47.372;8.512;2023-06-26T06:40:56;22.60;1.00
6443;DHT22;3254;47.372;8.512;2023-06-26T06:43:22;22.70;1.00
6443;DHT22;3254;47.372;8.512;2023-06-26T06:45:47;22.80;1.00
6443;DHT22;3254;47.372;8.512;2023-06-26T06:48:13;22.80;1.00
6443;DHT22;3254;47.372;8.512;2023-06-26T06:50:38;22.80;1.00
6443;DHT22;3254;47.372;8.512;2023-06-26T06:53:04;22.90;1.00
6443;DHT22;3254;47.372;8.512;2023-06-26T06:55:31;23.00;1.00
6443;DHT22;3254;47.372;8.512;2023-06-26T06:57:56;23.00;1.00
6443;DHT22;3254;47.372;8.512;2023-06-26T07:00:23;23.20;1.00
6443;DHT22;3254;47.372;8.512;2023-06-26T07:02:48;23.30;1.00
6443;DHT22;3254;47.372;8.512;2023-06-26T07:05:14;23.40;1.00
6443;DHT22;3254;47.372;8.512;2023-06-26T07:07:40;23.60;1.00
6443;DHT22;3254;47.372;8.512;2023-06-26T07:10:08;23.70;1.00
6443;DHT22;3254;47.372;8.512;2023-06-26T07:12:36;23.80;1.00
6443;DHT22;3254;47.372;8.512;2023-06-26T07:15:02;24.10;1.00
6443;DHT22;3254;47.372;8.512;2023-06-26T07:17:32;24.60;1.00
6443;DHT22;3254;47.372;8.512;2023-06-26T07:19:59;25.20;1.00
6443;DHT22;3254;47.372;8.512;2023-06-26T07:22:26;26.40;1.00
6443;DHT22;3254;47.372;8.512;2023-06-26T07:24:53;27.30;1.00
6443;DHT22;3254;47.372;8.512;2023-06-26T07:27:23;27.90;1.00
6443;DHT22;3254;47.372;8.512;2023-06-26T07:29:49;28.70;1.00
6443;DHT22;3254;47.372;8.512;2023-06-26T07:32:15;29.00;1.00
6443;DHT22;3254;47.372;8.512;2023-06-26T07:34:42;29.20;1.00
6443;DHT22;3254;47.372;8.512;2023-06-26T07:37:08;29.30;1.00
6443;DHT22;3254;47.372;8.512;2023-06-26T07:39:35;29.20;1.00
6443;DHT22;3254;47.372;8.512;2023-06-26T07:42:00;29.10;1.00
6443;DHT22;3254;47.372;8.512;2023-06-26T07:44:26;29.40;1.00
6443;DHT22;3254;47.372;8.512;2023-06-26T07:46:51;29.90;1.00
6443;DHT22;3254;47.372;8.512;2023-06-26T07:49:17;29.70;1.00
6443;DHT22;3254;47.372;8.512;2023-06-26T07:51:43;30.00;1.00
6443;DHT22;3254;47.372;8.512;2023-06-26T07:54:09;30.10;1.00
6443;DHT22;3254;47.372;8.512;2023-06-26T07:56:52;30.30;1.00
6443;DHT22;3254;47.372;8.512;2023-06-26T07:59:21;29.90;1.00
6443;DHT22;3254;47.372;8.512;2023-06-26T08:01:50;29.60;1.00
6443;DHT22;3254;47.372;8.512;2023-06-26T08:04:18;29.30;1.00
6443;DHT22;3254;47.372;8.512;2023-06-26T08:06:53;29.50;1.00
6443;DHT22;3254;47.372;8.512;2023-06-26T08:09:21;29.60;1.00
6443;DHT22;3254;47.372;8.512;2023-06-26T08:11:48;29.50;1.00
6443;DHT22;3254;47.372;8.512;2023-06-26T08:14:13;29.60;1.00
6443;DHT22;3254;47.372;8.512;2023-06-26T08:16:40;30.30;1.00
6443;DHT22;3254;47.372;8.512;2023-06-26T08:19:05;30.30;1.00
6443;DHT22;3254;47.372;8.512;2023-06-26T08:21:31;30.00;1.00
6443;DHT22;3254;47.372;8.512;2023-06-26T08:23:57;30.00;1.00
6443;DHT22;3254;47.372;8.512;2023-06-26T08:26:23;30.60;1.00
6443;DHT22;3254;47.372;8.512;2023-06-26T08:28:49;31.10;1.00
6443;DHT22;3254;47.372;8.512;2023-06-26T08:31:16;31.20;1.00
6443;DHT22;3254;47.372;8.512;2023-06-26T08:33:43;31.30;1.00
6443;DHT22;3254;47.372;8.512;2023-06-26T08:36:09;31.40;1.00
6443;DHT22;3254;47.372;8.512;2023-06-26T08:38:35;31.30;1.00
6443;DHT22;3254;47.372;8.512;2023-06-26T08:41:01;31.20;1.00
6443;DHT22;3254;47.372;8.512;2023-06-26T08:43:27;32.00;1.00
6443;DHT22;3254;47.372;8.512;2023-06-26T08:45:54;32.10;1.00
6443;DHT22;3254;47.372;8.512;2023-06-26T08:48:21;32.00;1.00
6443;DHT22;3254;47.372;8.512;2023-06-26T08:50:49;31.70;1.00
6443;DHT22;3254;47.372;8.512;2023-06-26T08:53:52;31.20;1.00
6443;DHT22;3254;47.372;8.512;2023-06-26T08:56:22;31.20;1.00
6443;DHT22;3254;47.372;8.512;2023-06-26T08:58:48;31.10;1.00
6443;DHT22;3254;47.372;8.512;2023-06-26T09:01:14;31.40;1.00
6443;DHT22;3254;47.372;8.512;2023-06-26T09:03:40;31.60;1.00
6443;DHT22;3254;47.372;8.512;2023-06-26T09:06:10;31.60;1.00
6443;DHT22;3254;47.372;8.512;2023-06-26T09:08:37;32.00;1.00
6443;DHT22;3254;47.372;8.512;2023-06-26T09:11:03;32.20;1.00
6443;DHT22;3254;47.372;8.512;2023-06-26T09:13:30;32.70;1.00
6443;DHT22;3254;47.372;8.512;2023-06-26T09:15:56;33.20;1.00
6443;DHT22;3254;47.372;8.512;2023-06-26T09:18:21;33.40;1.00
6443;DHT22;3254;47.372;8.512;2023-06-26T09:20:52;33.40;1.00
6443;DHT22;3254;47.372;8.512;2023-06-26T09:23:17;33.60;1.00
6443;DHT22;3254;47.372;8.512;2023-06-26T09:25:47;33.50;1.00
6443;DHT22;3254;47.372;8.512;2023-06-26T09:28:13;33.70;1.00
6443;DHT22;3254;47.372;8.512;2023-06-26T09:30:40;33.90;1.00
6443;DHT22;3254;47.372;8.512;2023-06-26T09:33:15;34.00;1.00
6443;DHT22;3254;47.372;8.512;2023-06-26T09:35:41;34.40;1.00
6443;DHT22;3254;47.372;8.512;2023-06-26T09:38:07;34.50;1.00
6443;DHT22;3254;47.372;8.512;2023-06-26T09:40:34;34.20;1.00
6443;DHT22;3254;47.372;8.512;2023-06-26T09:43:07;34.40;1.00
6443;DHT22;3254;47.372;8.512;2023-06-26T09:45:34;34.80;1.00
6443;DHT22;3254;47.372;8.512;2023-06-26T09:48:03;34.70;1.00
6443;DHT22;3254;47.372;8.512;2023-06-26T09:50:30;34.90;1.00
6443;DHT22;3254;47.372;8.512;2023-06-26T09:53:08;35.60;1.00
6443;DHT22;3254;47.372;8.512;2023-06-26T09:55:35;35.60;1.00
6443;DHT22;3254;47.372;8.512;2023-06-26T09:58:03;36.60;1.00
6443;DHT22;3254;47.372;8.512;2023-06-26T10:00:30;37.10;1.00
6443;DHT22;3254;47.372;8.512;2023-06-26T10:02:58;37.20;1.00
6443;DHT22;3254;47.372;8.512;2023-06-26T10:05:25;37.20;1.00
6443;DHT22;3254;47.372;8.512;2023-06-26T10:07:52;38.00;1.00
6443;DHT22;3254;47.372;8.512;2023-06-26T10:10:21;38.20;1.00
6443;DHT22;3254;47.372;8.512;2023-06-26T10:12:49;38.50;1.00
6443;DHT22;3254;47.372;8.512;2023-06-26T10:15:18;38.20;1.00
6443;DHT22;3254;47.372;8.512;2023-06-26T10:17:46;38.50;1.00
6443;DHT22;3254;47.372;8.512;2023-06-26T10:20:14;38.20;1.00
6443;DHT22;3254;47.372;8.512;2023-06-26T10:22:50;36.70;1.00
6443;DHT22;3254;47.372;8.512;2023-06-26T10:25:19;37.00;1.00
6443;DHT22;3254;47.372;8.512;2023-06-26T10:27:54;37.70;1.00
6443;DHT22;3254;47.372;8.512;2023-06-26T10:30:25;37.60;1.00
6443;DHT22;3254;47.372;8.512;2023-06-26T10:32:53;37.40;1.00
6443;DHT22;3254;47.372;8.512;2023-06-26T10:35:19;36.60;1.00
6443;DHT22;3254;47.372;8.512;2023-06-26T10:37:47;36.30;1.00
6443;DHT22;3254;47.372;8.512;2023-06-26T10:40:25;36.90;1.00
6443;DHT22;3254;47.372;8.512;2023-06-26T10:43:05;37.50;1.00
6443;DHT22;3254;47.372;8.512;2023-06-26T10:45:33;37.40;1.00
6443;DHT22;3254;47.372;8.512;2023-06-26T10:47:59;37.30;1.00
6443;DHT22;3254;47.372;8.512;2023-06-26T10:50:27;37.00;1.00
6443;DHT22;3254;47.372;8.512;2023-06-26T10:53:14;37.20;1.00
6443;DHT22;3254;47.372;8.512;2023-06-26T10:56:17;37.30;1.00
6443;DHT22;3254;47.372;8.512;2023-06-26T10:58:44;37.80;1.00
6443;DHT22;3254;47.372;8.512;2023-06-26T11:01:26;37.90;1.00
6443;DHT22;3254;47.372;8.512;2023-06-26T11:06:23;37.90;1.00
6443;DHT22;3254;47.372;8.512;2023-06-26T11:09:08;37.30;1.00
6443;DHT22;3254;47.372;8.512;2023-06-26T11:14:18;36.50;1.00
6443;DHT22;3254;47.372;8.512;2023-06-26T11:16:44;37.20;1.00
6443;DHT22;3254;47.372;8.512;2023-06-26T11:19:11;36.80;1.00
6443;DHT22;3254;47.372;8.512;2023-06-26T11:21:38;36.40;1.00
6443;DHT22;3254;47.372;8.512;2023-06-26T11:24:07;36.40;1.00
6443;DHT22;3254;47.372;8.512;2023-06-26T11:26:41;37.20;1.00
6443;DHT22;3254;47.372;8.512;2023-06-26T11:29:09;38.20;1.00
6443;DHT22;3254;47.372;8.512;2023-06-26T11:31:36;38.70;1.00
6443;DHT22;3254;47.372;8.512;2023-06-26T11:34:06;39.00;1.00
6443;DHT22;3254;47.372;8.512;2023-06-26T11:36:39;39.20;1.00
6443;DHT22;3254;47.372;8.512;2023-06-26T11:39:07;38.80;1.00
6443;DHT22;3254;47.372;8.512;2023-06-26T11:41:38;39.20;1.00
6443;DHT22;3254;47.372;8.512;2023-06-26T11:44:05;39.30;1.00
6443;DHT22;3254;47.372;8.512;2023-06-26T11:46:33;39.00;1.00
6443;DHT22;3254;47.372;8.512;2023-06-26T11:49:00;38.70;1.00
6443;DHT22;3254;47.372;8.512;2023-06-26T11:51:28;39.10;1.00
6443;DHT22;3254;47.372;8.512;2023-06-26T11:53:54;38.70;1.00
6443;DHT22;3254;47.372;8.512;2023-06-26T11:56:19;39.30;1.00
6443;DHT22;3254;47.372;8.512;2023-06-26T11:59:03;39.90;1.00
6443;DHT22;3254;47.372;8.512;2023-06-26T12:01:37;39.60;1.00
6443;DHT22;3254;47.372;8.512;2023-06-26T12:04:07;38.10;1.00
6443;DHT22;3254;47.372;8.512;2023-06-26T12:06:35;36.30;1.00
6443;DHT22;3254;47.372;8.512;2023-06-26T12:09:02;37.00;1.00
6443;DHT22;3254;47.372;8.512;2023-06-26T12:11:37;37.30;1.00
6443;DHT22;3254;47.372;8.512;2023-06-26T12:14:05;36.20;1.00
6443;DHT22;3254;47.372;8.512;2023-06-26T12:16:33;35.50;1.00
6443;DHT22;3254;47.372;8.512;2023-06-26T12:19:00;35.60;1.00
6443;DHT22;3254;47.372;8.512;2023-06-26T12:21:46;35.80;1.00
6443;DHT22;3254;47.372;8.512;2023-06-26T12:24:17;36.10;1.00
6443;DHT22;3254;47.372;8.512;2023-06-26T12:26:43;36.40;1.00
6443;DHT22;3254;47.372;8.512;2023-06-26T12:29:31;37.00;1.00
6443;DHT22;3254;47.372;8.512;2023-06-26T12:31:58;37.50;1.00
6443;DHT22;3254;47.372;8.512;2023-06-26T12:34:34;37.30;1.00
6443;DHT22;3254;47.372;8.512;2023-06-26T12:37:05;37.10;1.00
6443;DHT22;3254;47.372;8.512;2023-06-26T12:39:46;36.80;1.00
6443;DHT22;3254;47.372;8.512;2023-06-26T12:42:18;36.80;1.00
6443;DHT22;3254;47.372;8.512;2023-06-26T12:44:44;36.60;1.00
6443;DHT22;3254;47.372;8.512;2023-06-26T12:47:13;37.50;1.00
6443;DHT22;3254;47.372;8.512;2023-06-26T12:49:44;38.20;1.00
6443;DHT22;3254;47.372;8.512;2023-06-26T12:52:12;37.30;1.00
6443;DHT22;3254;47.372;8.512;2023-06-26T12:54:40;36.50;1.00
6443;DHT22;3254;47.372;8.512;2023-06-26T12:57:06;35.40;1.00
6443;DHT22;3254;47.372;8.512;2023-06-26T12:59:33;34.10;1.00
6443;DHT22;3254;47.372;8.512;2023-06-26T13:02:01;33.40;1.00
6443;DHT22;3254;47.372;8.512;2023-06-26T13:04:28;32.90;1.00
6443;DHT22;3254;47.372;8.512;2023-06-26T13:06:54;32.60;1.00
6443;DHT22;3254;47.372;8.512;2023-06-26T13:09:21;32.00;1.00
6443;DHT22;3254;47.372;8.512;2023-06-26T13:11:47;31.80;1.00
6443;DHT22;3254;47.372;8.512;2023-06-26T13:14:14;31.90;1.00
6443;DHT22;3254;47.372;8.512;2023-06-26T13:16:40;31.90;1.00
6443;DHT22;3254;47.372;8.512;2023-06-26T13:19:06;31.80;1.00
6443;DHT22;3254;47.372;8.512;2023-06-26T13:21:33;31.40;1.00
6443;DHT22;3254;47.372;8.512;2023-06-26T13:23:59;31.10;1.00
6443;DHT22;3254;47.372;8.512;2023-06-26T13:26:25;30.80;1.00
6443;DHT22;3254;47.372;8.512;2023-06-26T13:28:52;30.50;1.00
6443;DHT22;3254;47.372;8.512;2023-06-26T13:31:18;30.40;1.00
6443;DHT22;3254;47.372;8.512;2023-06-26T13:33:44;30.50;1.00
6443;DHT22;3254;47.372;8.512;2023-06-26T13:36:10;30.50;1.00
6443;DHT22;3254;47.372;8.512;2023-06-26T13:38:36;30.50;1.00
6443;DHT22;3254;47.372;8.512;2023-06-26T13:41:02;30.60;1.00
6443;DHT22;3254;47.372;8.512;2023-06-26T13:43:28;30.90;1.00
6443;DHT22;3254;47.372;8.512;2023-06-26T13:45:54;31.10;1.00
6443;DHT22;3254;47.372;8.512;2023-06-26T13:48:21;31.40;1.00
6443;DHT22;3254;47.372;8.512;2023-06-26T13:50:47;32.20;1.00
6443;DHT22;3254;47.372;8.512;2023-06-26T13:53:15;32.50;1.00
6443;DHT22;3254;47.372;8.512;2023-06-26T13:55:41;32.40;1.00
6443;DHT22;3254;47.372;8.512;2023-06-26T13:58:07;32.90;1.00
6443;DHT22;3254;47.372;8.512;2023-06-26T14:00:35;33.20;1.00
6443;DHT22;3254;47.372;8.512;2023-06-26T14:03:03;33.40;1.00
6443;DHT22;3254;47.372;8.512;2023-06-26T14:05:33;34.70;1.00
6443;DHT22;3254;47.372;8.512;2023-06-26T14:07:58;36.20;1.00
6443;DHT22;3254;47.372;8.512;2023-06-26T14:10:24;37.40;1.00
6443;DHT22;3254;47.372;8.512;2023-06-26T14:12:50;37.00;1.00
6443;DHT22;3254;47.372;8.512;2023-06-26T14:15:16;37.00;1.00
6443;DHT22;3254;47.372;8.512;2023-06-26T14:17:42;37.30;1.00
6443;DHT22;3254;47.372;8.512;2023-06-26T14:20:09;36.80;1.00
6443;DHT22;3254;47.372;8.512;2023-06-26T14:22:41;37.00;1.00
6443;DHT22;3254;47.372;8.512;2023-06-26T14:25:08;37.20;1.00
6443;DHT22;3254;47.372;8.512;2023-06-26T14:27:34;37.70;1.00
6443;DHT22;3254;47.372;8.512;2023-06-26T14:30:00;38.10;1.00
6443;DHT22;3254;47.372;8.512;2023-06-26T14:32:27;37.50;1.00
6443;DHT22;3254;47.372;8.512;2023-06-26T14:34:52;37.60;1.00
6443;DHT22;3254;47.372;8.512;2023-06-26T14:37:19;38.20;1.00
6443;DHT22;3254;47.372;8.512;2023-06-26T14:39:45;38.10;1.00
6443;DHT22;3254;47.372;8.512;2023-06-26T14:42:12;37.60;1.00
6443;DHT22;3254;47.372;8.512;2023-06-26T14:44:37;37.70;1.00
6443;DHT22;3254;47.372;8.512;2023-06-26T14:47:03;38.20;1.00
6443;DHT22;3254;47.372;8.512;2023-06-26T14:49:30;37.80;1.00
6443;DHT22;3254;47.372;8.512;2023-06-26T14:51:56;37.20;1.00
6443;DHT22;3254;47.372;8.512;2023-06-26T14:54:22;37.50;1.00
6443;DHT22;3254;47.372;8.512;2023-06-26T14:56:47;37.20;1.00
6443;DHT22;3254;47.372;8.512;2023-06-26T14:59:13;37.10;1.00
6443;DHT22;3254;47.372;8.512;2023-06-26T15:01:41;37.40;1.00
6443;DHT22;3254;47.372;8.512;2023-06-26T15:04:07;37.70;1.00
6443;DHT22;3254;47.372;8.512;2023-06-26T15:06:34;37.70;1.00
6443;DHT22;3254;47.372;8.512;2023-06-26T15:08:59;37.50;1.00
6443;DHT22;3254;47.372;8.512;2023-06-26T15:11:25;37.40;1.00
6443;DHT22;3254;47.372;8.512;2023-06-26T15:13:52;37.60;1.00
6443;DHT22;3254;47.372;8.512;2023-06-26T15:16:17;38.00;1.00
6443;DHT22;3254;47.372;8.512;2023-06-26T15:18:44;37.40;1.00
6443;DHT22;3254;47.372;8.512;2023-06-26T15:21:09;36.70;1.00
6443;DHT22;3254;47.372;8.512;2023-06-26T15:23:35;35.80;1.00
6443;DHT22;3254;47.372;8.512;2023-06-26T15:26:01;35.80;1.00
6443;DHT22;3254;47.372;8.512;2023-06-26T15:28:26;35.20;1.00
6443;DHT22;3254;47.372;8.512;2023-06-26T15:30:52;35.20;1.00
6443;DHT22;3254;47.372;8.512;2023-06-26T15:33:20;35.40;1.00
6443;DHT22;3254;47.372;8.512;2023-06-26T15:35:51;35.60;1.00
6443;DHT22;3254;47.372;8.512;2023-06-26T15:38:16;35.40;1.00
6443;DHT22;3254;47.372;8.512;2023-06-26T15:40:43;35.60;1.00
6443;DHT22;3254;47.372;8.512;2023-06-26T15:43:09;35.90;1.00
6443;DHT22;3254;47.372;8.512;2023-06-26T15:45:35;36.20;1.00
6443;DHT22;3254;47.372;8.512;2023-06-26T15:48:02;36.20;1.00
6443;DHT22;3254;47.372;8.512;2023-06-26T15:50:28;36.30;1.00
6443;DHT22;3254;47.372;8.512;2023-06-26T15:52:55;35.40;1.00
6443;DHT22;3254;47.372;8.512;2023-06-26T15:55:21;35.50;1.00
6443;DHT22;3254;47.372;8.512;2023-06-26T15:57:46;34.90;1.00
6443;DHT22;3254;47.372;8.512;2023-06-26T16:00:13;34.80;1.00
6443;DHT22;3254;47.372;8.512;2023-06-26T16:02:39;34.90;1.00
6443;DHT22;3254;47.372;8.512;2023-06-26T16:05:05;34.70;1.00
6443;DHT22;3254;47.372;8.512;2023-06-26T16:07:31;34.70;1.00
6443;DHT22;3254;47.372;8.512;2023-06-26T16:09:57;34.50;1.00
6443;DHT22;3254;47.372;8.512;2023-06-26T16:12:24;34.40;1.00
6443;DHT22;3254;47.372;8.512;2023-06-26T16:14:51;34.40;1.00
6443;DHT22;3254;47.372;8.512;2023-06-26T16:17:18;33.80;1.00
6443;DHT22;3254;47.372;8.512;2023-06-26T16:19:44;33.30;1.00
6443;DHT22;3254;47.372;8.512;2023-06-26T16:22:10;32.80;1.00
6443;DHT22;3254;47.372;8.512;2023-06-26T16:24:36;32.40;1.00
6443;DHT22;3254;47.372;8.512;2023-06-26T16:27:02;32.30;1.00
6443;DHT22;3254;47.372;8.512;2023-06-26T16:29:28;32.70;1.00
6443;DHT22;3254;47.372;8.512;2023-06-26T16:31:54;33.20;1.00
6443;DHT22;3254;47.372;8.512;2023-06-26T16:34:22;33.20;1.00